createdAt,value
2022-12-04T00:01:22.947Z,4.96
2022-12-04T00:03:55.772Z,4.84
2022-12-04T00:06:24.591Z,4.96
2022-12-04T00:08:53.536Z,5.26
2022-12-04T00:11:25.163Z,5.29
2022-12-04T00:13:53.367Z,5.28
2022-12-04T00:16:23.549Z,5.33
2022-12-04T00:18:52.878Z,5.25
2022-12-04T00:21:21.836Z,5.36
2022-12-04T00:23:49.611Z,5.35
2022-12-04T00:26:21.459Z,5.29
2022-12-04T00:28:51.723Z,5.20
2022-12-04T00:31:24.464Z,5.44
2022-12-04T00:33:53.273Z,5.51
2022-12-04T00:36:23.337Z,5.42
2022-12-04T00:38:51.930Z,5.44
2022-12-04T00:41:23.751Z,5.47
2022-12-04T00:43:51.841Z,5.46
2022-12-04T00:46:20.334Z,5.44
2022-12-04T00:48:48.495Z,5.36
2022-12-04T00:51:18.900Z,5.19
2022-12-04T00:53:47.054Z,5.31
2022-12-04T00:56:19.592Z,5.26
2022-12-04T00:58:47.375Z,5.08
2022-12-04T01:01:17.959Z,5.07
2022-12-04T01:03:45.911Z,5.07
2022-12-04T01:06:27.173Z,5.16
2022-12-04T01:08:56.355Z,5.26
2022-12-04T01:11:26.136Z,5.32
2022-12-04T01:13:54.333Z,5.36
2022-12-04T01:16:25.954Z,5.34
2022-12-04T01:18:53.963Z,5.03
2022-12-04T01:21:22.146Z,4.90
2022-12-04T01:23:50.099Z,5.02
2022-12-04T01:26:18.111Z,5.38
2022-12-04T01:28:46.379Z,5.09
2022-12-04T01:31:17.368Z,4.73
2022-12-04T01:33:46.027Z,4.93
2022-12-04T01:36:17.353Z,5.19
2022-12-04T01:38:45.394Z,5.40
2022-12-04T01:41:15.769Z,5.50
2022-12-04T01:43:44.168Z,5.63
2022-12-04T01:46:12.353Z,5.61
2022-12-04T01:48:53.930Z,5.56
2022-12-04T01:51:29.709Z,5.06
2022-12-04T01:54:04.411Z,5.50
2022-12-04T01:56:38.330Z,5.07
2022-12-04T01:59:08.121Z,5.05
2022-12-04T02:01:43.086Z,5.13
2022-12-04T02:04:11.059Z,4.54
2022-12-04T02:06:38.660Z,4.89
2022-12-04T02:09:06.576Z,5.15
2022-12-04T02:12:19.610Z,4.84
2022-12-04T02:15:05.774Z,5.05
2022-12-04T02:17:50.185Z,5.05
2022-12-04T02:20:23.246Z,5.32
2022-12-04T02:23:08.691Z,5.39
2022-12-04T02:25:59.351Z,4.87
2022-12-04T02:28:49.936Z,5.17
2022-12-04T02:31:22.935Z,4.79
2022-12-04T02:34:05.547Z,4.96
2022-12-04T02:36:41.324Z,4.36
2022-12-04T02:39:44.433Z,4.37
2022-12-04T02:42:28.205Z,4.85
2022-12-04T02:45:06.308Z,4.66
2022-12-04T02:47:37.036Z,4.67
2022-12-04T02:50:14.821Z,3.97
2022-12-04T02:52:57.365Z,4.45
2022-12-04T02:55:32.483Z,4.90
2022-12-04T02:58:06.220Z,4.53
2022-12-04T03:00:35.708Z,4.68
2022-12-04T03:03:09.106Z,4.64
2022-12-04T03:05:43.516Z,4.76
2022-12-04T03:08:17.248Z,4.80
2022-12-04T03:10:55.895Z,4.94
2022-12-04T03:13:41.714Z,5.03
2022-12-04T03:16:19.136Z,5.02
2022-12-04T03:18:57.959Z,4.62
2022-12-04T03:21:30.108Z,4.55
2022-12-04T03:24:12.104Z,4.42
2022-12-04T03:26:46.850Z,4.95
2022-12-04T03:29:21.045Z,4.71
2022-12-04T03:31:57.751Z,4.49
2022-12-04T03:34:32.714Z,4.45
2022-12-04T03:37:09.521Z,4.86
2022-12-04T03:40:02.944Z,5.22
2022-12-04T03:42:39.906Z,4.80
2022-12-04T03:45:50.972Z,5.12
2022-12-04T03:48:24.158Z,5.06
2022-12-04T03:51:00.548Z,5.12
2022-12-04T03:53:45.927Z,5.14
2022-12-04T03:56:28.519Z,4.67
2022-12-04T03:59:00.984Z,4.41
2022-12-04T04:01:35.776Z,4.68
2022-12-04T04:04:07.678Z,4.73
2022-12-04T04:06:39.153Z,4.66
2022-12-04T04:09:13.467Z,4.36
2022-12-04T04:11:48.756Z,4.38
2022-12-04T04:15:01.593Z,4.01
2022-12-04T04:18:08.202Z,4.77
2022-12-04T04:21:05.792Z,4.53
2022-12-04T04:23:57.587Z,4.24
2022-12-04T04:26:27.881Z,4.62
2022-12-04T04:28:55.748Z,4.58
2022-12-04T04:31:43.843Z,4.37
2022-12-04T04:34:29.918Z,4.38
2022-12-04T04:37:25.207Z,4.53
2022-12-04T04:39:59.966Z,4.85
2022-12-04T04:42:29.920Z,4.38
2022-12-04T04:45:00.733Z,4.16
2022-12-04T04:47:37.501Z,4.32
2022-12-04T04:50:09.282Z,4.53
2022-12-04T04:52:39.209Z,4.42
2022-12-04T04:55:08.027Z,4.58
2022-12-04T04:57:36.813Z,4.39
2022-12-04T05:00:07.728Z,3.92
2022-12-04T05:02:35.783Z,4.11
2022-12-04T05:05:04.152Z,4.41
2022-12-04T05:07:31.837Z,4.12
2022-12-04T05:09:59.873Z,4.63
2022-12-04T05:12:27.446Z,4.37
2022-12-04T05:14:54.918Z,4.69
2022-12-04T05:17:23.030Z,4.50
2022-12-04T05:19:53.974Z,4.21
2022-12-04T05:22:30.013Z,4.50
2022-12-04T05:24:58.480Z,4.19
2022-12-04T05:27:27.424Z,4.42
2022-12-04T05:29:58.267Z,4.49
2022-12-04T05:32:27.970Z,4.38
2022-12-04T05:34:56.584Z,4.15
2022-12-04T05:37:24.917Z,4.13
2022-12-04T05:39:53.262Z,4.00
2022-12-04T05:42:21.385Z,4.52
2022-12-04T05:44:50.202Z,4.64
2022-12-04T05:47:18.214Z,4.14
2022-12-04T05:49:45.896Z,4.23
2022-12-04T05:52:13.560Z,3.56
2022-12-04T05:54:41.440Z,4.19
2022-12-04T05:57:09.026Z,3.91
2022-12-04T05:59:37.504Z,4.11
2022-12-04T06:02:05.431Z,4.21
2022-12-04T06:04:33.335Z,4.27
2022-12-04T06:07:00.896Z,4.17
2022-12-04T06:09:28.526Z,4.00
2022-12-04T06:11:59.581Z,4.03
2022-12-04T06:14:27.487Z,3.99
2022-12-04T06:16:55.961Z,4.38
2022-12-04T06:19:24.276Z,4.25
2022-12-04T06:21:53.224Z,4.41
2022-12-04T06:24:24.162Z,4.15
2022-12-04T06:27:27.174Z,3.66
2022-12-04T06:29:44.912Z,4.21
2022-12-04T06:32:16.486Z,4.10
2022-12-04T06:34:53.029Z,4.09
2022-12-04T06:37:23.236Z,4.13
2022-12-04T06:39:50.904Z,3.93
2022-12-04T06:42:18.753Z,4.20
2022-12-04T06:44:46.671Z,4.35
2022-12-04T06:47:14.389Z,4.33
2022-12-04T06:49:42.331Z,4.38
2022-12-04T06:52:10.328Z,4.30
2022-12-04T06:54:37.874Z,4.57
2022-12-04T06:57:05.376Z,4.70
2022-12-04T06:59:33.970Z,4.77
2022-12-04T07:02:01.892Z,4.64
2022-12-04T07:04:29.673Z,4.37
2022-12-04T07:06:57.736Z,5.03
2022-12-04T07:09:25.269Z,5.19
2022-12-04T07:11:55.014Z,5.42
2022-12-04T07:14:22.921Z,5.64
2022-12-04T07:16:50.752Z,5.71
2022-12-04T07:19:18.376Z,6.03
2022-12-04T07:21:46.452Z,6.27
2022-12-04T07:24:17.055Z,6.46
2022-12-04T07:26:45.277Z,6.61
2022-12-04T07:29:13.616Z,6.71
2022-12-04T07:31:44.397Z,6.78
2022-12-04T07:34:12.311Z,6.75
2022-12-04T07:36:40.869Z,6.39
2022-12-04T07:39:08.582Z,6.97
2022-12-04T07:41:36.238Z,7.06
2022-12-04T07:44:06.464Z,6.97
2022-12-04T07:46:34.089Z,7.29
2022-12-04T07:49:01.904Z,7.16
2022-12-04T07:51:30.366Z,7.50
2022-12-04T07:54:02.719Z,7.52
2022-12-04T07:56:32.136Z,7.51
2022-12-04T07:59:00.493Z,7.48
2022-12-04T08:01:28.377Z,7.83
2022-12-04T08:03:58.590Z,7.82
2022-12-04T08:06:28.189Z,7.96
2022-12-04T08:08:57.470Z,8.18
2022-12-04T08:11:26.879Z,8.28
2022-12-04T08:14:00.092Z,8.28
2022-12-04T08:16:30.753Z,7.76
2022-12-04T08:18:58.671Z,7.62
2022-12-04T08:21:29.944Z,7.70
2022-12-04T08:23:59.223Z,7.66
2022-12-04T08:26:29.486Z,7.39
2022-12-04T08:28:58.071Z,7.47
2022-12-04T08:31:27.907Z,7.58
2022-12-04T08:33:57.567Z,7.55
2022-12-04T08:36:26.275Z,7.39
2022-12-04T08:38:54.264Z,7.17
2022-12-04T08:41:24.463Z,6.98
2022-12-04T08:43:55.988Z,7.11
2022-12-04T08:46:25.519Z,7.47
2022-12-04T08:48:54.091Z,7.77
2022-12-04T08:51:24.961Z,7.92
2022-12-04T08:53:56.921Z,8.00
2022-12-04T08:56:25.932Z,7.96
2022-12-04T08:58:56.796Z,7.72
2022-12-04T09:01:26.825Z,7.79
2022-12-04T09:03:56.430Z,7.88
2022-12-04T09:06:25.394Z,7.83
2022-12-04T09:08:55.808Z,7.65
2022-12-04T09:11:27.208Z,7.67
2022-12-04T09:13:56.257Z,7.57
2022-12-04T09:16:26.055Z,7.69
2022-12-04T09:18:54.923Z,7.76
2022-12-04T09:21:25.352Z,7.92
2022-12-04T09:23:53.731Z,8.19
2022-12-04T09:26:30.031Z,7.89
2022-12-04T09:29:00.992Z,7.35
2022-12-04T09:31:29.502Z,8.26
2022-12-04T09:34:01.627Z,8.31
2022-12-04T09:36:30.262Z,8.18
2022-12-04T09:38:58.478Z,8.51
2022-12-04T09:41:32.977Z,8.56
2022-12-04T09:44:16.157Z,9.11
2022-12-04T09:46:54.451Z,8.93
2022-12-04T09:49:41.699Z,8.86
2022-12-04T09:52:26.641Z,9.12
2022-12-04T09:54:55.981Z,9.01
2022-12-04T09:57:37.265Z,8.32
2022-12-04T10:00:06.807Z,8.67
2022-12-04T10:02:44.505Z,8.57
2022-12-04T10:05:27.765Z,9.02
2022-12-04T10:08:01.699Z,8.67
2022-12-04T10:10:45.587Z,8.86
2022-12-04T10:13:42.006Z,8.76
2022-12-04T10:16:19.519Z,8.98
2022-12-04T10:18:58.073Z,8.99
2022-12-04T10:21:50.669Z,9.10
2022-12-04T10:24:28.247Z,8.97
2022-12-04T10:27:01.263Z,8.67
2022-12-04T10:29:33.425Z,8.53
2022-12-04T10:32:22.702Z,8.65
2022-12-04T10:34:54.171Z,8.37
2022-12-04T10:37:23.558Z,8.47
2022-12-04T10:39:58.491Z,8.35
2022-12-04T10:42:36.247Z,8.19
2022-12-04T10:45:05.592Z,8.24
2022-12-04T10:47:34.964Z,8.06
2022-12-04T10:50:13.055Z,8.03
2022-12-04T10:52:40.923Z,8.04
2022-12-04T10:55:08.857Z,7.86
2022-12-04T10:57:46.479Z,7.99
2022-12-04T11:00:27.276Z,7.85
2022-12-04T11:02:57.717Z,7.96
2022-12-04T11:05:35.774Z,7.99
2022-12-04T11:08:06.502Z,7.68
2022-12-04T11:10:34.377Z,8.23
2022-12-04T11:13:14.136Z,8.05
2022-12-04T11:15:56.488Z,8.04
2022-12-04T11:18:25.574Z,8.40
2022-12-04T11:21:00.682Z,8.70
2022-12-04T11:23:33.624Z,9.04
2022-12-04T11:26:05.922Z,8.82
2022-12-04T11:28:43.101Z,9.22
2022-12-04T11:31:18.073Z,9.06
2022-12-04T11:34:13.529Z,8.81
2022-12-04T11:36:42.226Z,9.00
2022-12-04T11:39:13.050Z,8.62
2022-12-04T11:41:41.353Z,9.09
2022-12-04T11:44:27.438Z,8.98
2022-12-04T11:46:57.957Z,9.30
2022-12-04T11:49:28.230Z,9.15
2022-12-04T11:52:08.852Z,8.09
2022-12-04T11:54:58.073Z,8.71
2022-12-04T11:57:54.082Z,7.83
2022-12-04T12:00:23.323Z,7.43
2022-12-04T12:03:16.009Z,7.61
2022-12-04T12:05:53.805Z,8.25
2022-12-04T12:08:27.596Z,8.59
2022-12-04T12:10:55.156Z,8.47
2022-12-04T12:13:44.902Z,8.17
2022-12-04T12:16:40.502Z,8.56
2022-12-04T12:19:27.262Z,7.98
2022-12-04T12:22:05.278Z,8.09
2022-12-04T12:25:03.965Z,8.70
2022-12-04T12:27:31.528Z,8.51
2022-12-04T12:30:09.616Z,8.47
2022-12-04T12:32:43.421Z,8.60
2022-12-04T12:35:39.779Z,8.22
2022-12-04T12:38:14.776Z,7.60
2022-12-04T12:40:45.146Z,8.28
2022-12-04T12:43:30.298Z,8.45
2022-12-04T12:46:34.673Z,8.33
2022-12-04T12:49:11.433Z,7.94
2022-12-04T12:51:42.274Z,7.65
2022-12-04T12:54:10.323Z,7.77
2022-12-04T12:56:49.214Z,7.37
2022-12-04T12:59:23.722Z,7.64
2022-12-04T13:02:22.674Z,7.82
2022-12-04T13:04:55.393Z,8.30
2022-12-04T13:07:37.499Z,8.39
2022-12-04T13:10:24.608Z,8.34
2022-12-04T13:12:57.105Z,7.91
2022-12-04T13:15:35.579Z,8.01
2022-12-04T13:18:04.421Z,8.15
2022-12-04T13:20:44.431Z,8.05
2022-12-04T13:23:43.112Z,8.49
2022-12-04T13:26:39.112Z,8.51
2022-12-04T13:29:26.296Z,8.62
2022-12-04T13:32:14.524Z,8.67
2022-12-04T13:35:29.981Z,8.59
2022-12-04T13:38:19.844Z,8.63
2022-12-04T13:40:54.189Z,8.67
2022-12-04T13:43:35.084Z,8.19
2022-12-04T13:46:06.574Z,8.60
2022-12-04T13:48:42.313Z,8.59
2022-12-04T13:51:35.742Z,8.48
2022-12-04T13:54:12.663Z,8.52
2022-12-04T13:56:43.258Z,8.57
2022-12-04T13:59:31.013Z,8.21
2022-12-04T14:02:07.809Z,8.35
2022-12-04T14:04:53.227Z,8.36
2022-12-04T14:07:26.660Z,8.31
2022-12-04T14:09:57.385Z,8.16
2022-12-04T14:12:29.749Z,8.09
2022-12-04T14:15:05.508Z,8.13
2022-12-04T14:17:36.307Z,8.07
2022-12-04T14:20:08.225Z,8.02
2022-12-04T14:22:36.211Z,8.02
2022-12-04T14:25:13.167Z,8.14
2022-12-04T14:27:40.717Z,8.01
2022-12-04T14:30:28.669Z,7.99
2022-12-04T14:33:09.397Z,7.81
2022-12-04T14:35:47.754Z,7.65
2022-12-04T14:38:20.765Z,7.79
2022-12-04T14:40:52.257Z,7.73
2022-12-04T14:43:24.445Z,7.57
2022-12-04T14:46:03.698Z,7.78
2022-12-04T14:49:09.676Z,7.59
2022-12-04T14:51:49.849Z,7.51
2022-12-04T14:54:41.119Z,7.45
2022-12-04T14:57:12.220Z,7.37
2022-12-04T14:59:42.952Z,7.30
2022-12-04T15:02:20.267Z,7.37
2022-12-04T15:04:51.041Z,7.40
2022-12-04T15:07:20.218Z,7.30
2022-12-04T15:10:11.762Z,7.05
2022-12-04T15:12:48.457Z,7.22
2022-12-04T15:15:25.369Z,7.28
2022-12-04T15:18:02.639Z,7.21
2022-12-04T15:20:42.864Z,6.95
2022-12-04T15:23:21.793Z,6.95
2022-12-04T15:25:53.381Z,6.57
2022-12-04T15:28:30.814Z,6.86
2022-12-04T15:31:01.672Z,6.61
2022-12-04T15:33:34.692Z,6.63
2022-12-04T15:36:07.524Z,6.50
2022-12-04T15:38:36.962Z,6.89
2022-12-04T15:41:04.823Z,6.99
2022-12-04T15:43:40.619Z,6.93
2022-12-04T15:46:22.617Z,6.74
2022-12-04T15:48:50.879Z,6.51
2022-12-04T15:51:22.056Z,6.52
2022-12-04T15:53:50.548Z,6.72
2022-12-04T15:56:22.150Z,6.45
2022-12-04T15:58:59.478Z,6.48
2022-12-04T16:01:27.919Z,6.75
2022-12-04T16:03:56.401Z,6.40
2022-12-04T16:06:27.059Z,6.49
2022-12-04T16:08:59.812Z,6.28
2022-12-04T16:11:31.907Z,6.37
2022-12-04T16:14:15.486Z,6.68
2022-12-04T16:16:50.156Z,6.56
2022-12-04T16:19:18.084Z,6.56
2022-12-04T16:21:46.680Z,6.63
2022-12-04T16:24:14.563Z,6.70
2022-12-04T16:26:42.388Z,6.54
2022-12-04T16:29:10.352Z,6.61
2022-12-04T16:31:38.737Z,6.54
2022-12-04T16:34:06.672Z,6.41
2022-12-04T16:36:34.777Z,6.50
2022-12-04T16:39:03.560Z,6.12
2022-12-04T16:41:31.512Z,6.12
2022-12-04T16:44:00.669Z,6.36
2022-12-04T16:46:31.867Z,5.81
2022-12-04T16:49:07.477Z,6.19
2022-12-04T16:51:37.467Z,5.83
2022-12-04T16:54:05.903Z,6.09
2022-12-04T16:56:33.681Z,6.12
2022-12-04T16:59:01.918Z,5.60
2022-12-04T17:01:36.661Z,5.72
2022-12-04T17:04:04.901Z,5.74
2022-12-04T17:06:33.249Z,5.90
2022-12-04T17:09:02.323Z,5.94
2022-12-04T17:11:30.236Z,5.43
2022-12-04T17:13:58.480Z,5.46
2022-12-04T17:16:28.952Z,5.53
2022-12-04T17:18:56.600Z,5.78
2022-12-04T17:21:24.819Z,5.80
2022-12-04T17:23:52.892Z,5.94
2022-12-04T17:26:20.899Z,5.79
2022-12-04T17:28:50.177Z,6.01
2022-12-04T17:31:25.092Z,5.76
2022-12-04T17:33:53.512Z,5.83
2022-12-04T17:36:25.138Z,5.88
2022-12-04T17:38:58.565Z,6.01
2022-12-04T17:41:27.860Z,5.94
2022-12-04T17:43:55.922Z,5.99
2022-12-04T17:46:24.783Z,6.23
2022-12-04T17:48:55.516Z,6.14
2022-12-04T17:51:25.084Z,6.13
2022-12-04T17:53:52.944Z,6.03
2022-12-04T17:56:22.816Z,6.09
2022-12-04T17:58:51.756Z,5.97
2022-12-04T18:01:24.638Z,5.84
2022-12-04T18:03:55.551Z,6.30
2022-12-04T18:06:25.064Z,6.40
2022-12-04T18:08:53.922Z,6.33
2022-12-04T18:11:24.747Z,6.04
2022-12-04T18:13:57.882Z,6.22
2022-12-04T18:16:27.368Z,6.05
2022-12-04T18:18:56.631Z,6.01
2022-12-04T18:21:24.794Z,6.01
2022-12-04T18:23:55.998Z,5.63
2022-12-04T18:26:27.081Z,6.11
2022-12-04T18:28:55.496Z,6.30
2022-12-04T18:31:24.026Z,5.46
2022-12-04T18:33:51.892Z,5.57
2022-12-04T18:36:23.868Z,5.98
2022-12-04T18:38:57.405Z,6.03
2022-12-04T18:41:27.050Z,6.06
2022-12-04T18:43:55.255Z,6.17
2022-12-04T18:46:23.629Z,6.25
2022-12-04T18:48:58.926Z,6.20
2022-12-04T18:51:48.926Z,6.08
2022-12-04T18:54:21.288Z,6.15
2022-12-04T18:56:50.006Z,5.93
2022-12-04T18:59:24.689Z,5.85
2022-12-04T19:01:54.015Z,5.79
2022-12-04T19:04:24.008Z,5.74
2022-12-04T19:06:54.960Z,5.82
2022-12-04T19:12:16.584Z,5.65
2022-12-04T19:14:44.580Z,5.78
2022-12-04T19:17:12.557Z,5.58
2022-12-04T19:19:41.043Z,5.91
2022-12-04T19:22:09.681Z,5.54
2022-12-04T19:24:37.710Z,5.75
2022-12-04T19:27:11.529Z,5.70
2022-12-04T19:29:41.870Z,5.67
2022-12-04T19:32:13.828Z,6.08
2022-12-04T19:34:42.001Z,5.55
2022-12-04T19:37:10.152Z,5.61
2022-12-04T19:39:38.305Z,5.50
2022-12-04T19:42:07.726Z,5.63
2022-12-04T19:44:51.989Z,5.88
2022-12-04T19:47:20.284Z,5.67
2022-12-04T19:49:48.595Z,5.59
2022-12-04T19:52:16.717Z,5.60
2022-12-04T19:54:46.518Z,6.09
2022-12-04T19:57:14.915Z,6.09
2022-12-04T19:59:46.222Z,6.30
2022-12-04T20:02:15.608Z,6.35
2022-12-04T20:04:47.162Z,5.98
2022-12-04T20:07:14.839Z,5.93
2022-12-04T20:09:51.993Z,5.95
2022-12-04T20:12:20.778Z,6.44
2022-12-04T20:14:48.937Z,6.51
2022-12-04T20:17:17.114Z,6.34
2022-12-04T20:19:45.351Z,6.48
2022-12-04T20:22:13.252Z,6.42
2022-12-04T20:24:41.064Z,5.36
2022-12-04T20:27:08.986Z,6.05
2022-12-04T20:29:38.715Z,6.18
2022-12-04T20:32:06.633Z,5.99
2022-12-04T20:34:38.802Z,6.03
2022-12-04T20:37:10.249Z,6.17
2022-12-04T20:39:39.663Z,6.01
2022-12-04T20:42:07.432Z,6.31
2022-12-04T20:44:35.049Z,6.42
2022-12-04T20:47:03.156Z,6.66
2022-12-04T20:49:32.114Z,6.61
2022-12-04T20:52:00.348Z,6.28
2022-12-04T20:54:28.208Z,6.42
2022-12-04T20:56:56.941Z,6.69
2022-12-04T20:59:25.264Z,6.73
2022-12-04T21:01:54.770Z,6.84
2022-12-04T21:04:23.126Z,6.82
2022-12-04T21:06:50.887Z,6.89
2022-12-04T21:09:23.258Z,6.89
2022-12-04T21:11:53.215Z,6.90
2022-12-04T21:14:45.158Z,6.74
2022-12-04T21:17:18.305Z,6.59
2022-12-04T21:19:48.181Z,6.51
2022-12-04T21:22:17.268Z,6.69
2022-12-04T21:24:44.871Z,6.69
2022-12-04T21:27:18.874Z,6.60
2022-12-04T21:29:49.624Z,6.69
2022-12-04T21:32:22.039Z,6.55
2022-12-04T21:34:50.089Z,6.61
2022-12-04T21:37:17.950Z,6.77
2022-12-04T21:39:45.685Z,6.80
2022-12-04T21:42:31.517Z,6.69
2022-12-04T21:45:05.989Z,6.54
2022-12-04T21:47:34.899Z,6.49
2022-12-04T21:50:04.319Z,6.67
2022-12-04T21:52:31.955Z,6.77
2022-12-04T21:54:59.532Z,6.70
2022-12-04T21:57:28.443Z,6.64
2022-12-04T21:59:56.532Z,6.70
2022-12-04T22:02:24.694Z,6.46
2022-12-04T22:04:52.550Z,6.36
2022-12-04T22:07:20.189Z,5.84
2022-12-04T22:09:47.822Z,6.32
2022-12-04T22:12:41.429Z,6.39
2022-12-04T22:15:03.136Z,6.36
2022-12-04T22:17:31.128Z,6.48
2022-12-04T22:19:58.948Z,6.33
2022-12-04T22:22:27.719Z,6.40
2022-12-04T22:24:55.923Z,6.54
2022-12-04T22:27:23.408Z,6.54
2022-12-04T22:29:52.034Z,6.88
2022-12-04T22:32:20.301Z,6.64
2022-12-04T22:34:49.164Z,6.84
2022-12-04T22:37:17.014Z,6.90
2022-12-04T22:39:44.867Z,6.77
2022-12-04T22:42:12.484Z,6.55
2022-12-04T22:44:39.954Z,6.72
2022-12-04T22:47:07.853Z,6.70
2022-12-04T22:49:35.635Z,6.88
2022-12-04T22:52:03.395Z,6.72
2022-12-04T22:54:31.720Z,6.67
2022-12-04T22:56:59.338Z,6.44
2022-12-04T22:59:27.057Z,6.73
2022-12-04T23:01:54.904Z,6.75
2022-12-04T23:04:22.535Z,6.96
2022-12-04T23:06:50.024Z,7.08
2022-12-04T23:09:18.418Z,7.06
2022-12-04T23:11:51.721Z,6.66
2022-12-04T23:14:19.655Z,6.54
2022-12-04T23:16:47.867Z,6.70
2022-12-04T23:19:18.623Z,7.05
2022-12-04T23:21:49.674Z,7.12
2022-12-04T23:24:21.067Z,7.15
2022-12-04T23:26:48.972Z,7.15
2022-12-04T23:29:51.342Z,7.06
2022-12-04T23:32:05.105Z,7.04
2022-12-04T23:34:32.871Z,6.82
2022-12-04T23:37:00.501Z,6.97
2022-12-04T23:39:28.553Z,7.03
2022-12-04T23:41:56.211Z,6.98
2022-12-04T23:44:23.724Z,6.85
2022-12-04T23:46:51.742Z,6.97
2022-12-04T23:49:19.352Z,6.86
2022-12-04T23:51:46.928Z,6.63
2022-12-04T23:54:14.885Z,6.71
2022-12-04T23:56:42.400Z,6.76
2022-12-04T23:59:09.989Z,6.63
